createdAt,value
2022-09-28T00:38:43.543Z,81.03
2022-09-28T00:41:12.304Z,80.94
2022-09-28T00:43:40.756Z,80.93
2022-09-28T00:46:16.188Z,80.93
2022-09-28T00:48:54.518Z,80.84
2022-09-28T02:11:16.826Z,81.51
2022-09-28T02:13:49.013Z,81.71
2022-09-28T02:56:51.934Z,81.64
2022-09-28T02:59:33.279Z,82.09
2022-09-28T03:02:11.480Z,82.20
2022-09-28T03:04:47.138Z,82.04
2022-09-28T03:07:27.056Z,81.84
2022-09-28T03:29:41.418Z,82.55
2022-09-28T03:32:10.086Z,82.40
2022-09-28T03:34:37.953Z,82.43
2022-09-28T03:37:05.894Z,82.34
2022-09-28T03:39:33.898Z,82.54
2022-09-28T03:42:01.860Z,82.22
2022-09-28T05:48:44.666Z,83.65
2022-09-28T05:51:12.905Z,83.57
2022-09-28T05:53:40.735Z,83.96
2022-09-28T05:56:08.706Z,83.90
2022-09-28T05:58:39.384Z,83.75
2022-09-28T06:41:27.455Z,83.98
2022-09-28T06:43:59.750Z,84.09
2022-09-28T06:46:46.176Z,83.78
2022-09-28T06:49:32.616Z,83.59
2022-09-28T07:00:42.682Z,84.21
2022-09-28T07:03:13.806Z,84.11
2022-09-28T07:06:14.028Z,83.96
2022-09-28T07:09:11.102Z,83.84
2022-09-28T07:37:01.664Z,84.22
2022-09-28T07:39:31.616Z,83.97
2022-09-28T07:42:02.542Z,84.47
2022-09-28T08:24:48.640Z,84.17
2022-09-28T08:27:19.174Z,84.09
2022-09-28T08:29:47.098Z,84.42
2022-09-28T08:32:35.782Z,84.20
2022-09-28T09:47:06.183Z,84.03
2022-09-28T09:49:56.653Z,84.03
2022-09-28T09:52:29.595Z,84.04
2022-09-28T09:55:03.688Z,84.01
2022-09-28T09:57:53.023Z,84.09
2022-09-28T10:03:58.915Z,84.01
2022-09-28T10:06:33.213Z,83.82
2022-09-28T10:09:04.507Z,84.00
2022-09-28T10:11:36.146Z,83.96
2022-09-28T10:14:08.148Z,83.91
2022-09-28T10:16:45.393Z,83.79
2022-09-28T10:19:26.559Z,83.71
2022-09-28T10:22:16.840Z,83.69
2022-09-28T10:24:47.556Z,84.20
2022-09-28T10:27:18.097Z,83.54
2022-09-28T10:29:53.154Z,83.82
2022-09-28T10:32:24.100Z,83.74
2022-09-28T10:35:14.725Z,83.63
2022-09-28T10:37:54.338Z,84.28
2022-09-28T10:40:54.211Z,83.79
2022-09-28T10:44:06.379Z,83.78
2022-09-28T10:46:45.056Z,83.48
2022-09-28T10:49:18.571Z,83.89
2022-09-28T10:51:57.188Z,83.44
2022-09-28T10:54:30.353Z,83.64
2022-09-28T10:57:00.894Z,83.32
2022-09-28T10:59:49.336Z,83.75
2022-09-28T11:02:35.496Z,83.51
2022-09-28T11:05:22.916Z,83.32
2022-09-28T11:07:56.535Z,83.14
2022-09-28T11:10:32.795Z,83.14
2022-09-28T11:13:10.928Z,83.50
2022-09-28T11:15:44.548Z,83.34
2022-09-28T11:18:26.275Z,83.27
2022-09-28T11:21:12.167Z,83.62
2022-09-28T11:23:57.491Z,83.69
2022-09-28T11:26:26.200Z,83.12
2022-09-28T11:28:54.984Z,83.17
2022-09-28T11:31:34.514Z,83.15
2022-09-28T11:34:14.150Z,83.26
2022-09-28T11:37:23.508Z,83.41
2022-09-28T11:39:59.026Z,83.20
2022-09-28T11:42:41.316Z,83.46
2022-09-28T11:45:24.795Z,83.21
2022-09-28T11:48:00.651Z,83.06
2022-09-28T11:50:36.776Z,83.12
2022-09-28T11:53:22.258Z,83.37
2022-09-28T11:56:08.686Z,83.30
2022-09-28T11:58:42.225Z,83.05
2022-09-28T12:01:20.460Z,83.30
2022-09-28T12:04:14.147Z,83.22
2022-09-28T12:06:50.765Z,83.31
2022-09-28T12:09:26.268Z,82.62
2022-09-28T12:12:06.212Z,82.91
2022-09-28T12:14:48.461Z,82.91
2022-09-28T12:17:24.547Z,83.03
2022-09-28T12:19:59.384Z,83.17
2022-09-28T12:22:33.611Z,82.89
2022-09-28T12:25:05.004Z,82.62
2022-09-28T12:27:41.181Z,82.92
2022-09-28T12:30:16.312Z,82.86
2022-09-28T12:32:47.820Z,83.16
2022-09-28T12:35:21.262Z,82.98
2022-09-28T12:38:08.852Z,83.09
2022-09-28T12:40:43.342Z,82.98
2022-09-28T12:43:33.365Z,83.09
2022-09-28T12:46:32.826Z,82.83
2022-09-28T12:50:07.199Z,82.77
2022-09-28T12:52:07.987Z,83.13
2022-09-28T12:55:03.906Z,83.09
2022-09-28T12:57:41.636Z,82.94
2022-09-28T13:00:15.877Z,82.75
2022-09-28T13:03:10.477Z,82.57
2022-09-28T13:06:18.315Z,83.07
2022-09-28T13:08:58.419Z,83.01
2022-09-28T13:11:34.149Z,82.74
2022-09-28T13:14:23.574Z,83.07
2022-09-28T13:17:01.226Z,82.72
2022-09-28T13:19:38.710Z,83.13
2022-09-28T13:22:22.987Z,83.14
2022-09-28T13:24:55.776Z,82.71
2022-09-28T13:27:30.965Z,82.96
2022-09-28T13:30:01.273Z,82.98
2022-09-28T13:32:32.132Z,83.05
2022-09-28T13:35:02.254Z,83.07
2022-09-28T13:37:30.646Z,82.63
2022-09-28T13:39:59.640Z,82.75
2022-09-28T13:43:05.097Z,83.05
2022-09-28T13:45:53.675Z,82.88
2022-09-28T13:48:28.192Z,82.60
2022-09-28T13:51:20.818Z,82.70
2022-09-28T13:54:14.113Z,82.74
2022-09-28T13:56:49.850Z,82.64
2022-09-28T13:59:27.134Z,82.88
2022-09-28T14:02:06.841Z,82.88
2022-09-28T14:04:59.041Z,82.46
2022-09-28T14:07:47.861Z,83.01
2022-09-28T14:10:20.934Z,82.62
2022-09-28T14:12:50.279Z,82.79
2022-09-28T14:15:41.099Z,82.54
2022-09-28T14:18:20.226Z,82.66
2022-09-28T14:21:04.872Z,82.47
2022-09-28T14:23:57.557Z,82.65
2022-09-28T14:26:49.239Z,82.49
2022-09-28T14:29:28.698Z,82.68
2022-09-28T14:31:59.111Z,82.11
2022-09-28T14:34:34.191Z,82.71
2022-09-28T14:37:23.770Z,82.36
2022-09-28T14:40:10.016Z,82.32
2022-09-28T14:42:38.206Z,82.09
2022-09-28T14:45:36.355Z,82.39
2022-09-28T14:48:15.155Z,82.59
2022-09-28T14:50:43.111Z,82.26
2022-09-28T14:53:14.964Z,82.57
2022-09-28T14:55:50.392Z,82.04
2022-09-28T14:58:22.646Z,82.06
2022-09-28T15:00:56.113Z,82.01
2022-09-28T15:03:25.529Z,82.19
2022-09-28T15:05:54.034Z,82.38
2022-09-28T15:08:23.467Z,82.04
2022-09-28T15:10:52.710Z,81.84
2022-09-28T15:13:25.303Z,82.33
2022-09-28T15:15:55.257Z,82.06
2022-09-28T15:18:43.844Z,81.57
2022-09-28T15:21:13.254Z,81.63
2022-09-28T15:23:44.466Z,81.83
2022-09-28T15:26:24.086Z,82.14
2022-09-28T15:28:52.011Z,81.64
2022-09-28T15:31:22.373Z,81.71
2022-09-28T15:34:07.670Z,82.00
2022-09-28T15:36:39.380Z,81.89
2022-09-28T15:39:15.340Z,81.56
2022-09-28T15:41:44.566Z,81.79
2022-09-28T15:44:30.348Z,81.39
2022-09-28T15:47:10.625Z,81.42
2022-09-28T15:49:42.438Z,81.64
2022-09-28T15:52:24.997Z,81.66
2022-09-28T15:54:55.196Z,81.38
2022-09-28T15:57:40.304Z,81.71
2022-09-28T16:00:25.085Z,81.58
2022-09-28T16:03:05.556Z,81.19
2022-09-28T16:05:42.927Z,81.23
2022-09-28T16:08:21.228Z,81.22
2022-09-28T16:11:05.757Z,81.32
2022-09-28T16:13:34.819Z,81.44
2022-09-28T16:16:03.159Z,81.14
2022-09-28T16:18:32.475Z,81.07
2022-09-28T16:21:26.825Z,81.42
2022-09-28T16:23:57.320Z,80.88
2022-09-28T16:26:33.399Z,80.91
2022-09-28T16:29:07.230Z,81.13
2022-09-28T16:31:35.395Z,81.03
2022-09-28T16:34:20.090Z,81.23
2022-09-28T16:36:49.986Z,80.91
2022-09-28T16:39:19.659Z,81.07
2022-09-28T16:41:51.727Z,81.22
2022-09-28T16:44:26.090Z,80.65
2022-09-28T16:46:56.921Z,80.83
2022-09-28T16:49:26.849Z,81.03
2022-09-28T16:51:55.080Z,80.59
2022-09-28T16:54:44.402Z,80.78
2022-09-28T16:57:16.124Z,80.70
2022-09-28T16:59:44.042Z,80.93
2022-09-28T17:02:35.321Z,80.94
2022-09-28T17:05:07.061Z,80.67
2022-09-28T17:07:35.129Z,80.73
2022-09-28T17:10:03.108Z,80.80
2022-09-28T17:12:32.307Z,80.61
2022-09-28T17:15:00.977Z,80.54
2022-09-28T17:17:31.390Z,80.91
2022-09-28T17:19:59.308Z,80.65
2022-09-28T17:22:27.216Z,80.75
2022-09-28T17:24:55.126Z,80.65
2022-09-28T17:27:23.173Z,80.43
2022-09-28T17:29:54.038Z,80.58
2022-09-28T17:32:21.911Z,80.64
2022-09-28T17:35:00.823Z,80.49
2022-09-28T17:37:36.175Z,80.46
2022-09-28T17:40:08.698Z,80.59
2022-09-28T17:42:41.173Z,80.86
2022-09-28T17:45:10.528Z,80.73
2022-09-28T17:47:38.488Z,80.62
2022-09-28T17:50:18.852Z,80.30
2022-09-28T17:52:47.420Z,80.81
2022-09-28T17:55:15.253Z,80.72
2022-09-28T17:57:43.100Z,80.48
2022-09-28T18:03:10.667Z,80.74
2022-09-28T18:05:38.709Z,80.73
2022-09-28T18:08:06.581Z,80.47
2022-09-28T18:10:35.625Z,80.45
2022-09-28T18:13:03.530Z,80.59
2022-09-28T18:15:33.060Z,80.45
2022-09-28T18:18:00.950Z,80.68
2022-09-28T18:20:29.638Z,80.62
2022-09-28T18:22:58.176Z,80.51
2022-09-28T18:25:26.183Z,80.48
2022-09-28T18:27:57.260Z,80.51
2022-09-28T18:30:25.844Z,80.40
2022-09-28T18:32:55.127Z,80.48
2022-09-28T18:35:23.529Z,80.43
2022-09-28T18:37:51.994Z,80.56
2022-09-28T18:40:20.389Z,80.45
2022-09-28T18:42:50.719Z,80.39
2022-09-28T18:45:19.114Z,80.61
2022-09-28T18:47:47.445Z,80.51
2022-09-28T18:50:16.624Z,80.51
2022-09-28T18:52:47.464Z,80.48
2022-09-28T18:55:15.898Z,80.52
2022-09-28T18:57:44.665Z,80.49
2022-09-28T19:00:16.412Z,80.47
2022-09-28T19:02:44.429Z,80.56
2022-09-28T19:05:13.004Z,80.54
2022-09-28T19:07:42.253Z,80.32
2022-09-28T19:10:10.177Z,80.53
2022-09-28T19:12:38.204Z,80.53
2022-09-28T19:15:06.904Z,80.28
2022-09-28T19:17:35.277Z,80.49
2022-09-28T19:20:03.250Z,80.53
2022-09-28T19:22:31.415Z,80.64
2022-09-28T19:25:01.051Z,80.42
2022-09-28T19:27:28.966Z,80.47
2022-09-28T19:29:56.745Z,80.51
2022-09-28T19:32:24.754Z,80.44
2022-09-28T19:34:52.601Z,80.59
2022-09-28T19:37:20.554Z,80.48
2022-09-28T19:39:48.338Z,80.43
2022-09-28T19:42:17.652Z,80.42
2022-09-28T19:44:46.322Z,80.47
2022-09-28T19:47:14.471Z,80.42
2022-09-28T19:49:42.451Z,80.54
2022-09-28T19:52:15.679Z,80.57
2022-09-28T19:54:48.423Z,80.54
2022-09-28T19:57:19.600Z,80.54
2022-09-28T19:59:52.413Z,80.60
2022-09-28T20:05:12.857Z,80.59
2022-09-28T20:10:34.451Z,80.65
2022-09-28T20:13:04.404Z,80.70
2022-09-28T20:15:32.403Z,80.47
2022-09-28T20:18:00.373Z,80.55
2022-09-28T20:20:28.293Z,80.32
2022-09-28T20:22:56.178Z,80.71
2022-09-28T20:25:24.074Z,80.71
2022-09-28T20:27:52.167Z,80.62
2022-09-28T20:30:21.394Z,80.38
2022-09-28T20:32:49.741Z,80.66
2022-09-28T20:35:30.343Z,80.54
2022-09-28T20:38:08.157Z,80.64
2022-09-28T20:40:36.552Z,80.74
2022-09-28T20:43:06.579Z,80.70
2022-09-28T20:45:38.096Z,80.70
2022-09-28T20:48:06.495Z,80.70
2022-09-28T20:50:34.799Z,80.74
2022-09-28T20:53:02.649Z,80.79
2022-09-28T20:55:30.670Z,80.91
2022-09-28T20:58:03.309Z,80.74
2022-09-28T21:00:31.049Z,80.87
2022-09-28T21:03:00.360Z,80.79
2022-09-28T21:05:28.306Z,80.53
2022-09-28T21:07:56.211Z,80.56
2022-09-28T21:10:23.992Z,80.94
2022-09-28T21:12:53.218Z,80.61
2022-09-28T21:15:21.036Z,80.75
2022-09-28T21:17:48.843Z,80.79
2022-09-28T21:20:18.794Z,80.76
2022-09-28T21:22:46.619Z,80.61
2022-09-28T21:25:14.565Z,81.08
2022-09-28T21:27:42.824Z,80.97
2022-09-28T21:30:11.712Z,81.12
2022-09-28T21:32:39.556Z,80.63
2022-09-28T21:35:36.604Z,80.80
2022-09-28T21:38:04.917Z,81.15
2022-09-28T21:40:32.767Z,81.06
2022-09-28T21:43:00.543Z,80.91
2022-09-28T21:45:28.592Z,81.18
2022-09-28T21:47:56.460Z,80.98
2022-09-28T21:50:26.735Z,80.90
2022-09-28T21:52:56.701Z,81.04
2022-09-28T21:55:52.639Z,80.85
2022-09-28T21:58:45.912Z,81.10
2022-09-28T22:01:18.283Z,80.95
2022-09-28T22:07:00.072Z,80.90
2022-09-28T22:09:28.886Z,81.02
2022-09-28T22:11:56.815Z,80.96
2022-09-28T22:14:24.662Z,81.15
2022-09-28T22:16:52.971Z,81.44
2022-09-28T22:19:20.784Z,80.65
2022-09-28T22:21:48.781Z,81.20
2022-09-28T22:24:18.072Z,81.16
2022-09-28T22:26:45.857Z,81.12
2022-09-28T22:29:13.764Z,81.08
2022-09-28T22:31:42.121Z,81.22
2022-09-28T22:34:11.025Z,81.45
2022-09-28T22:36:39.044Z,81.61
2022-09-28T22:39:07.582Z,81.47
2022-09-28T22:41:36.761Z,81.55
2022-09-28T22:44:04.650Z,80.88
2022-09-28T22:46:32.983Z,81.34
2022-09-28T22:49:01.798Z,81.43
2022-09-28T22:51:31.064Z,80.82
2022-09-28T22:53:59.303Z,81.42
2022-09-28T22:56:27.547Z,80.98
2022-09-28T22:58:56.768Z,81.31
2022-09-28T23:01:28.970Z,81.13
2022-09-28T23:03:58.079Z,81.24
2022-09-28T23:06:27.749Z,81.26
2022-09-28T23:08:55.749Z,81.45
2022-09-28T23:11:23.988Z,80.93
2022-09-28T23:13:53.938Z,81.24
2022-09-28T23:16:25.533Z,81.99
2022-09-28T23:18:56.178Z,81.02
2022-09-28T23:21:26.259Z,81.56
2022-09-28T23:23:56.238Z,81.27
2022-09-28T23:26:26.897Z,81.18
2022-09-28T23:28:55.326Z,81.65
2022-09-28T23:31:26.789Z,81.34
2022-09-28T23:33:58.261Z,81.47
2022-09-28T23:36:26.921Z,81.29
2022-09-28T23:38:54.724Z,81.37
2022-09-28T23:41:22.654Z,81.30
2022-09-28T23:43:50.562Z,82.07
2022-09-28T23:46:20.977Z,81.36
2022-09-28T23:48:50.883Z,81.61
2022-09-28T23:51:18.878Z,81.47
2022-09-28T23:53:47.151Z,82.15
2022-09-28T23:56:15.359Z,81.35
2022-09-28T23:58:43.624Z,81.65
